Terminal Aerodrome Forecast
Issued by NWS Newport/Morehead City, NC

Home | Current Version | Previous Version | Graphics & Text | Print | Product List | Glossary On
Versions: 1 2 3 4 5 6 7 8 9 10 11 12 13 14 15 16 17 18 19
000
FTUS42 KMHX 280554
TAFEWN
TAF
KEWN 280554Z 2806/2906 20004KT P6SM SCT100
     FM281200 22007KT P6SM BKN100
     FM281500 23010G16KT P6SM BKN060
     FM282200 21008KT P6SM -SHRA VCTS SCT025 BKN060CB
     FM290100 23006KT P6SM SCT070=

USA.gov is the U.S. government's official web portal to all federal, state and local government web resources and services.